Time;durP1;ratioP1;P1;durP2;ratioP2;P2;SDS_P1;SDS_P2;PMS_P1;PMS_P2;Temp;Humidity;BMP_temperature;BMP_pressure;BME280_temperature;BME280_humidity;BME280_pressure;Samples;Min_cycle;Max_cycle;Signal;HPM_P1;HPM_P2
2023/10/31 00:00:36;;;;;;;2.85;1.70;;;;;;;21.00;64.28;99615.78;5101667;28;20055;-60
2023/10/31 00:03:03;;;;;;;4.25;1.73;;;;;;;21.01;64.19;99612.06;5105442;28;20039;-60
2023/10/31 00:05:30;;;;;;;3.42;1.88;;;;;;;21.01;64.16;99600.47;5109879;28;20054;-60
2023/10/31 00:07:58;;;;;;;3.38;1.63;;;;;;;21.00;64.09;99607.69;5109974;28;20039;-60
2023/10/31 00:10:26;;;;;;;2.60;1.30;;;;;;;20.99;63.99;99598.78;5101637;28;20054;-60
2023/10/31 00:12:53;;;;;;;4.15;1.92;;;;;;;20.99;64.00;99603.34;5105332;28;20469;-60
2023/10/31 00:15:20;;;;;;;2.75;1.17;;;;;;;20.98;64.13;99591.72;5109491;28;20044;-60
2023/10/31 00:17:48;;;;;;;3.90;1.50;;;;;;;20.98;64.04;99598.94;5109525;28;20044;-60
2023/10/31 00:20:15;;;;;;;3.30;1.58;;;;;;;20.97;64.04;99590.03;5101011;28;20406;-60
2023/10/31 00:22:43;;;;;;;5.43;2.08;;;;;;;20.97;63.98;99587.34;5104851;28;20422;-60
2023/10/31 00:25:10;;;;;;;4.68;1.95;;;;;;;20.97;63.98;99587.34;5109481;28;20477;-60
2023/10/31 00:27:37;;;;;;;4.50;1.58;;;;;;;20.97;64.05;99581.13;5109250;28;20044;-60
2023/10/31 00:30:06;;;;;;;3.70;1.80;;;;;;;20.95;63.98;99572.41;5099331;28;20055;-60
2023/10/31 00:32:33;;;;;;;4.70;1.92;;;;;;;20.96;64.01;99568.69;5104935;28;20055;-60
2023/10/31 00:35:00;;;;;;;4.65;1.60;;;;;;;20.95;63.97;99578.63;5109268;28;20047;-63
2023/10/31 00:37:28;;;;;;;4.72;1.60;;;;;;;20.95;63.98;99567.84;5100605;28;20481;-64
2023/10/31 00:39:55;;;;;;;5.85;1.95;;;;;;;20.95;64.07;99557.09;5099606;28;20079;-64
2023/10/31 00:42:22;;;;;;;3.67;1.80;;;;;;;20.95;63.93;99556.25;5103310;28;20058;-64
2023/10/31 00:44:50;;;;;;;3.38;1.73;;;;;;;20.95;64.00;99558.94;5107263;28;20051;-63
2023/10/31 00:47:17;;;;;;;4.05;1.45;;;;;;;20.95;63.95;99561.66;5100192;28;20077;-64
2023/10/31 00:49:45;;;;;;;3.22;1.60;;;;;;;20.94;64.05;99565.31;5099011;28;20052;-64
2023/10/31 00:52:12;;;;;;;2.72;1.52;;;;;;;20.94;64.00;99559.94;5105311;28;20066;-64
2023/10/31 00:54:39;;;;;;;3.30;1.30;;;;;;;20.94;64.12;99573.38;5102550;28;20505;-60
2023/10/31 00:57:07;;;;;;;5.05;1.67;;;;;;;20.93;64.04;99569.03;5109124;28;20423;-60
2023/10/31 00:59:34;;;;;;;2.90;1.70;;;;;;;20.92;64.06;99554.75;5100517;28;20056;-60
2023/10/31 01:02:02;;;;;;;3.95;1.67;;;;;;;20.93;63.95;99558.28;5103711;28;20486;-60
2023/10/31 01:04:31;;;;;;;2.72;1.40;;;;;;;20.93;64.05;99566.34;5104157;28;20500;-63
2023/10/31 01:06:58;;;;;;;4.43;1.98;;;;;;;20.92;64.07;99567.38;5099316;28;20111;-64
2023/10/31 01:09:25;;;;;;;2.92;1.42;;;;;;;20.91;64.26;99571.91;5109194;28;20052;-63
2023/10/31 01:11:54;;;;;;;3.92;1.35;;;;;;;20.93;64.05;99577.09;5103637;28;20044;-64
2023/10/31 01:14:21;;;;;;;2.47;1.40;;;;;;;20.92;64.00;99580.81;5104064;28;20065;-64
2023/10/31 01:16:48;;;;;;;3.33;1.65;;;;;;;20.92;64.02;99578.97;5109042;28;20497;-64
2023/10/31 01:19:16;;;;;;;2.22;1.10;;;;;;;20.92;64.01;99575.44;5100973;28;20044;-64
2023/10/31 01:21:43;;;;;;;2.53;1.38;;;;;;;20.91;64.07;99563.00;5102571;28;20075;-64
2023/10/31 01:24:11;;;;;;;2.55;1.38;;;;;;;20.92;64.07;99561.97;5108659;28;20520;-62
2023/10/31 01:26:38;;;;;;;3.30;1.65;;;;;;;20.91;64.06;99554.94;5099826;28;20054;-64
2023/10/31 01:29:05;;;;;;;3.05;1.38;;;;;;;20.91;63.97;99568.38;5100336;28;20051;-64
2023/10/31 01:31:34;;;;;;;2.80;1.45;;;;;;;20.90;64.09;99562.16;5106317;28;20055;-64
2023/10/31 01:34:12;;;;;;;4.22;1.88;;;;;;;20.91;64.03;99577.28;5106253;28;20377;-62
2023/10/31 01:36:39;;;;;;;3.30;1.48;;;;;;;20.90;64.06;99581.00;5111159;28;20389;-63
2023/10/31 01:39:07;;;;;;;4.03;1.40;;;;;;;20.90;64.08;99575.63;5105403;28;20047;-64
2023/10/31 01:41:36;;;;;;;4.50;1.30;;;;;;;20.91;64.04;99576.44;5112929;28;20050;-64
2023/10/31 01:44:04;;;;;;;2.80;1.20;;;;;;;20.90;63.97;99580.13;5105765;28;20054;-60
2023/10/31 01:46:31;;;;;;;2.38;1.30;;;;;;;20.89;64.01;99579.28;5111738;28;20059;-60
2023/10/31 01:48:58;;;;;;;3.22;1.67;;;;;;;20.89;63.86;99563.16;5105969;28;20040;-60
2023/10/31 01:51:27;;;;;;;2.90;1.02;;;;;;;20.89;63.86;99563.16;5107100;28;20048;-60
2023/10/31 01:53:56;;;;;;;3.42;1.73;;;;;;;20.90;63.88;99570.25;5112029;28;20059;-63
2023/10/31 01:56:25;;;;;;;3.10;1.35;;;;;;;20.90;64.00;99559.47;5101776;28;20051;-64
2023/10/31 01:58:53;;;;;;;2.13;0.93;;;;;;;20.89;63.97;99562.31;5108247;28;20055;-63
2023/10/31 02:01:21;;;;;;;3.28;1.60;;;;;;;20.89;63.94;99560.47;5109089;28;20052;-64
2023/10/31 02:03:48;;;;;;;2.38;0.90;;;;;;;20.88;63.88;99549.88;5103637;28;20465;-60
2023/10/31 02:06:16;;;;;;;2.85;1.20;;;;;;;20.88;63.85;99515.75;5111990;28;20047;-60
2023/10/31 02:08:43;;;;;;;3.60;1.40;;;;;;;20.88;63.80;99513.06;5106392;28;20050;-60
2023/10/31 02:11:11;;;;;;;2.38;1.20;;;;;;;20.87;63.87;99532.91;5105451;28;20056;-60
2023/10/31 02:13:39;;;;;;;2.45;1.23;;;;;;;20.88;63.89;99536.44;5112220;28;20040;-62
2023/10/31 02:16:07;;;;;;;3.33;1.13;;;;;;;20.88;63.67;99552.59;5101701;28;20062;-64
2023/10/31 02:18:34;;;;;;;3.22;1.45;;;;;;;20.88;63.75;99544.50;5108864;28;20051;-64
2023/10/31 02:21:03;;;;;;;3.05;1.48;;;;;;;20.88;63.77;99541.81;5110705;28;20052;-64
2023/10/31 02:23:31;;;;;;;3.97;1.83;;;;;;;20.88;63.75;99533.75;5102369;28;20048;-60
2023/10/31 02:25:58;;;;;;;3.88;1.23;;;;;;;20.87;63.75;99529.38;5111663;28;20046;-60
2023/10/31 02:28:27;;;;;;;3.40;1.70;;;;;;;20.87;63.70;99530.22;5105768;28;20044;-60
2023/10/31 02:30:55;;;;;;;2.72;1.13;;;;;;;20.87;63.65;99530.22;5106205;28;20067;-60
2023/10/31 02:33:23;;;;;;;2.88;1.08;;;;;;;20.87;63.59;99534.78;5109433;28;20062;-62
2023/10/31 02:35:50;;;;;;;2.75;1.42;;;;;;;20.87;63.58;99529.38;5101355;28;20051;-64
2023/10/31 02:38:17;;;;;;;2.00;0.90;;;;;;;20.87;63.58;99535.59;5106588;28;20044;-64
2023/10/31 02:40:45;;;;;;;2.80;1.27;;;;;;;20.87;63.58;99545.53;5110304;28;20047;-60
2023/10/31 02:43:15;;;;;;;2.40;1.25;;;;;;;20.87;63.63;99537.47;5103627;28;20047;-62
2023/10/31 02:45:42;;;;;;;2.85;1.10;;;;;;;20.87;63.58;99529.38;5109997;28;20052;-64
2023/10/31 02:48:10;;;;;;;3.10;1.20;;;;;;;20.86;63.65;99520.44;5106016;28;20044;-64
2023/10/31 02:50:37;;;;;;;2.65;1.40;;;;;;;20.87;63.52;99515.94;5105111;28;20056;-64
2023/10/31 02:53:04;;;;;;;2.38;1.10;;;;;;;20.86;63.54;99498.94;5111317;28;20039;-64
2023/10/31 02:55:32;;;;;;;2.95;1.00;;;;;;;20.86;63.42;99490.03;5101015;28;20051;-60
2023/10/31 02:57:59;;;;;;;1.95;0.80;;;;;;;20.86;63.56;99492.72;5107173;28;20047;-60
2023/10/31 03:00:27;;;;;;;3.13;1.23;;;;;;;20.86;63.50;99473.88;5108508;28;20051;-60
2023/10/31 03:02:54;;;;;;;2.58;1.23;;;;;;;20.86;63.45;99465.81;5102627;28;20489;-61
2023/10/31 03:05:22;;;;;;;2.47;0.98;;;;;;;20.85;63.46;99472.22;5111053;28;20393;-60
2023/10/31 03:07:49;;;;;;;3.83;1.10;;;;;;;20.86;63.42;99472.03;5106008;28;20055;-59
2023/10/31 03:10:17;;;;;;;3.78;1.30;;;;;;;20.86;63.41;99452.38;5105356;28;20059;-59
2023/10/31 03:12:44;;;;;;;5.55;1.17;;;;;;;20.85;63.38;99439.94;5110990;28;20413;-60
2023/10/31 03:15:12;;;;;;;2.13;1.00;;;;;;;20.84;63.54;99444.50;5100279;28;20421;-62
2023/10/31 03:17:39;;;;;;;1.73;0.82;;;;;;;20.85;63.40;99453.38;5105141;28;20521;-64
2023/10/31 03:20:08;;;;;;;2.22;1.08;;;;;;;20.84;63.41;99460.63;5109283;28;20056;-64
2023/10/31 03:22:36;;;;;;;1.95;1.05;;;;;;;20.85;63.38;99464.97;5102053;28;20110;-64
2023/10/31 03:25:04;;;;;;;5.90;1.27;;;;;;;20.85;63.50;99469.53;5108944;28;20402;-63
2023/10/31 03:27:32;;;;;;;4.40;1.38;;;;;;;20.85;63.47;99450.69;5106136;28;20044;-64
2023/10/31 03:29:59;;;;;;;2.95;1.00;;;;;;;20.84;63.49;99468.69;5105475;28;20046;-63
2023/10/31 03:32:26;;;;;;;3.00;0.85;;;;;;;20.85;63.36;99462.28;5110758;28;20401;-64
2023/10/31 03:34:54;;;;;;;2.60;0.88;;;;;;;20.84;63.41;99449.03;5109549;28;20406;-63
2023/10/31 03:37:21;;;;;;;2.88;1.15;;;;;;;20.84;63.34;99466.00;5105915;28;20054;-64
2023/10/31 03:39:48;;;;;;;2.42;0.90;;;;;;;20.84;63.42;99463.31;5103670;28;20048;-64
2023/10/31 03:42:16;;;;;;;1.45;0.70;;;;;;;20.84;63.42;99470.56;5110542;28;20401;-64
2023/10/31 03:44:43;;;;;;;2.28;0.95;;;;;;;20.84;63.41;99467.88;5101511;28;20070;-60
2023/10/31 03:47:10;;;;;;;2.10;0.80;;;;;;;20.84;63.45;99455.25;5104444;28;20067;-60
2023/10/31 03:49:39;;;;;;;2.97;1.00;;;;;;;20.84;63.33;99457.09;5109197;28;20100;-60
2023/10/31 03:52:07;;;;;;;3.63;1.15;;;;;;;20.83;63.44;99477.78;5107629;28;20054;-60
2023/10/31 03:54:34;;;;;;;1.65;0.90;;;;;;;20.83;63.50;99474.25;5117643;27;20367;-64
2023/10/31 03:57:02;;;;;;;2.70;1.10;;;;;;;20.83;63.42;99466.19;5087006;28;20385;-64
2023/10/31 03:59:29;;;;;;;3.10;1.17;;;;;;;20.83;63.35;99460.81;5104613;28;20392;-64
2023/10/31 04:01:56;;;;;;;3.63;1.15;;;;;;;20.83;63.43;99469.72;5109576;28;20412;-64
2023/10/31 04:04:24;;;;;;;3.38;1.27;;;;;;;20.82;63.68;99448.34;5099148;28;20047;-63
2023/10/31 04:06:51;;;;;;;1.83;0.77;;;;;;;20.83;63.41;99460.81;5105341;28;20071;-64
2023/10/31 04:09:19;;;;;;;2.15;1.00;;;;;;;20.83;63.40;99452.75;5108463;28;20473;-64
2023/10/31 04:11:47;;;;;;;2.28;1.02;;;;;;;20.82;63.48;99443.81;5100837;28;20063;-64
2023/10/31 04:14:14;;;;;;;1.85;0.73;;;;;;;20.82;63.39;99451.88;5099030;28;20048;-63
2023/10/31 04:16:45;;;;;;;2.75;0.98;;;;;;;20.82;63.30;99437.59;5105028;28;20074;-64
2023/10/31 04:19:13;;;;;;;1.90;0.98;;;;;;;20.82;63.34;99440.28;5104389;28;20047;-64
2023/10/31 04:21:41;;;;;;;1.80;0.75;;;;;;;20.81;63.30;99442.13;5100678;28;20055;-64
2023/10/31 04:24:08;;;;;;;2.20;0.90;;;;;;;20.81;63.25;99435.94;5109289;28;20051;-60
2023/10/31 04:26:35;;;;;;;2.60;1.25;;;;;;;20.80;63.26;99436.94;5105634;28;20071;-60
2023/10/31 04:29:03;;;;;;;2.35;0.85;;;;;;;20.82;63.13;99437.59;5104756;28;20489;-60
2023/10/31 04:31:30;;;;;;;2.55;0.88;;;;;;;20.80;63.30;99437.78;5100388;28;20052;-60
2023/10/31 04:34:10;;;;;;;1.73;0.80;;;;;;;20.80;63.24;99429.72;5107681;28;20046;-63
2023/10/31 04:36:37;;;;;;;2.88;0.95;;;;;;;20.80;63.25;99435.09;5106941;28;20051;-64
2023/10/31 04:39:05;;;;;;;2.58;0.82;;;;;;;20.80;63.18;99427.03;5103104;28;20047;-64
2023/10/31 04:41:33;;;;;;;2.58;1.00;;;;;;;20.80;63.23;99429.72;5109441;28;20488;-64
2023/10/31 04:44:00;;;;;;;1.90;0.75;;;;;;;20.81;63.18;99434.06;5103409;28;20055;-63
2023/10/31 04:46:27;;;;;;;2.00;0.95;;;;;;;20.80;63.34;99435.09;5104557;28;20048;-64
2023/10/31 04:48:55;;;;;;;3.30;0.88;;;;;;;20.80;63.28;99429.72;5109635;28;20040;-64
2023/10/31 04:51:22;;;;;;;2.63;0.90;;;;;;;20.80;63.26;99436.94;5100447;28;20047;-64
2023/10/31 04:53:50;;;;;;;3.05;1.00;;;;;;;20.80;63.13;99436.94;5113768;28;20048;-62
2023/10/31 04:56:17;;;;;;;1.95;0.60;;;;;;;20.80;63.19;99443.16;5102717;28;20056;-61
2023/10/31 04:58:45;;;;;;;1.92;0.77;;;;;;;20.79;63.23;99425.34;5109270;28;20042;-62
2023/10/31 05:01:13;;;;;;;2.03;0.80;;;;;;;20.80;63.31;99426.19;5100217;28;20048;-60
2023/10/31 05:03:41;;;;;;;2.42;1.08;;;;;;;20.79;63.17;99433.44;5107309;28;20505;-62
2023/10/31 05:06:08;;;;;;;2.08;0.90;;;;;;;20.80;63.24;99429.72;5110604;28;20489;-62
2023/10/31 05:08:35;;;;;;;1.42;0.65;;;;;;;20.82;63.13;99429.53;5105012;28;20481;-61
2023/10/31 05:11:03;;;;;;;1.80;0.73;;;;;;;20.81;63.11;99404.47;5113320;28;20043;-61
2023/10/31 05:13:30;;;;;;;2.70;0.75;;;;;;;20.80;63.00;99399.28;5106715;28;20051;-64
2023/10/31 05:15:58;;;;;;;3.35;0.77;;;;;;;20.81;63.07;99392.88;5107895;28;20387;-65
2023/10/31 05:18:26;;;;;;;2.13;0.93;;;;;;;20.80;63.09;99367.84;5112763;28;20050;-64
2023/10/31 05:20:54;;;;;;;2.78;1.00;;;;;;;20.80;63.08;99354.41;5103824;28;20044;-65
2023/10/31 05:23:21;;;;;;;1.70;0.68;;;;;;;20.81;63.09;99357.94;5110348;28;20052;-64
2023/10/31 05:25:48;;;;;;;2.38;0.80;;;;;;;20.80;62.88;99350.88;5103990;28;20520;-61
2023/10/31 05:28:16;;;;;;;1.67;0.75;;;;;;;20.81;62.82;99352.53;5112865;28;20039;-61
2023/10/31 05:30:43;;;;;;;2.30;0.77;;;;;;;20.81;62.80;99371.38;5103724;28;20063;-61
2023/10/31 05:33:15;;;;;;;3.17;1.10;;;;;;;20.80;62.73;99377.78;5110491;28;20051;-63
2023/10/31 05:35:42;;;;;;;1.98;1.00;;;;;;;20.80;62.79;99393.91;5110508;28;20477;-65
2023/10/31 05:38:10;;;;;;;1.67;0.70;;;;;;;20.80;62.79;99399.28;5105127;28;20047;-65
2023/10/31 05:40:37;;;;;;;2.30;0.80;;;;;;;20.80;62.71;99418.13;5112448;28;20040;-66
2023/10/31 05:43:05;;;;;;;1.83;0.75;;;;;;;20.80;62.68;99426.19;5105195;28;20062;-61
2023/10/31 05:45:33;;;;;;;2.00;0.65;;;;;;;20.80;62.67;99455.78;5106889;28;20059;-60
2023/10/31 05:48:01;;;;;;;1.88;0.73;;;;;;;20.81;62.68;99470.91;5112315;28;20457;-61
2023/10/31 05:50:28;;;;;;;1.52;0.63;;;;;;;20.79;62.70;99471.06;5103650;28;20044;-60
2023/10/31 05:52:56;;;;;;;3.33;1.15;;;;;;;20.79;62.57;99481.84;5109457;28;20044;-60
2023/10/31 05:55:23;;;;;;;2.03;0.73;;;;;;;20.79;62.67;99494.44;5110632;28;20063;-64
2023/10/31 05:57:51;;;;;;;1.45;0.57;;;;;;;20.79;62.80;99499.84;5105089;28;20500;-65
2023/10/31 06:00:18;;;;;;;2.03;0.98;;;;;;;20.79;62.71;99522.19;5110734;28;20047;-61
2023/10/31 06:02:45;;;;;;;3.25;0.80;;;;;;;20.77;62.29;99540.31;5106543;28;20055;-60
2023/10/31 06:05:13;;;;;;;1.88;0.70;;;;;;;20.77;62.26;99547.56;5106893;28;20044;-64
2023/10/31 06:07:41;;;;;;;3.63;0.93;;;;;;;20.77;62.31;99550.25;5111524;28;20052;-65
2023/10/31 06:10:08;;;;;;;2.00;0.80;;;;;;;20.76;62.24;99556.66;5102973;28;20047;-65
2023/10/31 06:12:36;;;;;;;2.83;0.73;;;;;;;20.76;61.79;99568.25;5109074;28;20051;-65
2023/10/31 06:15:03;;;;;;;3.22;0.80;;;;;;;20.76;61.09;99572.78;5109818;28;20377;-61
2023/10/31 06:17:33;;;;;;;2.20;0.70;;;;;;;20.74;60.95;99565.72;5104498;28;20047;-61
2023/10/31 06:20:01;;;;;;;2.28;0.70;;;;;;;20.76;60.98;99575.47;5109931;28;20046;-61
2023/10/31 06:22:29;;;;;;;1.50;0.50;;;;;;;20.74;61.07;99587.25;5106003;28;20437;-61
2023/10/31 06:24:58;;;;;;;1.13;0.40;;;;;;;20.76;61.22;99588.91;5106307;28;20047;-66
2023/10/31 06:27:25;;;;;;;2.05;0.88;;;;;;;20.76;61.31;99603.22;5111637;28;20054;-66
2023/10/31 06:29:55;;;;;;;1.98;0.73;;;;;;;20.75;61.69;99590.78;5102617;28;20044;-65
2023/10/31 06:32:42;;;;;;;1.83;0.77;;;;;;;20.76;61.99;99586.22;5106170;28;20110;-65
2023/10/31 06:35:10;;;;;;;2.20;0.90;;;;;;;20.74;61.88;99589.94;5111702;28;20055;-60
2023/10/31 06:37:37;;;;;;;2.03;0.60;;;;;;;20.76;61.90;99618.50;5102495;28;20047;-60
2023/10/31 06:40:05;;;;;;;1.42;0.50;;;;;;;20.75;61.96;99631.13;5108922;28;20056;-60
2023/10/31 06:42:32;;;;;;;2.80;0.68;;;;;;;20.75;62.01;99660.72;5109246;28;20048;-60
2023/10/31 06:45:00;;;;;;;1.30;0.60;;;;;;;20.74;62.08;99649.13;5104741;28;20052;-61
2023/10/31 06:47:27;;;;;;;1.58;0.57;;;;;;;20.74;61.60;99649.13;5111545;28;20051;-60
2023/10/31 06:49:54;;;;;;;1.63;0.73;;;;;;;20.74;61.70;99651.81;5105209;28;20397;-61
2023/10/31 06:52:22;;;;;;;1.73;0.47;;;;;;;20.74;61.78;99665.25;5106341;28;20497;-60
2023/10/31 06:54:49;;;;;;;3.58;0.50;;;;;;;20.73;62.01;99666.22;5111108;28;20043;-65
2023/10/31 06:57:16;;;;;;;1.63;0.70;;;;;;;20.76;61.66;99669.59;5101911;28;20047;-66
2023/10/31 06:59:44;;;;;;;1.85;0.73;;;;;;;20.74;61.62;99667.94;5108077;28;20489;-65
2023/10/31 07:02:11;;;;;;;1.50;0.50;;;;;;;20.74;61.55;99673.31;5108379;28;20048;-65
2023/10/31 07:04:39;;;;;;;1.63;0.60;;;;;;;20.75;61.24;99679.53;5104350;28;20494;-64
2023/10/31 07:07:06;;;;;;;1.70;0.65;;;;;;;20.74;61.44;99673.31;5111051;28;20050;-65
2023/10/31 07:09:34;;;;;;;2.15;0.80;;;;;;;20.73;61.82;99687.75;5104693;28;20442;-65
2023/10/31 07:12:02;;;;;;;1.67;0.50;;;;;;;20.74;61.95;99683.22;5105630;28;20048;-65
2023/10/31 07:14:29;;;;;;;1.77;0.77;;;;;;;20.73;62.11;99698.50;5111181;28;20043;-60
2023/10/31 07:16:56;;;;;;;2.55;0.70;;;;;;;20.74;62.00;99710.09;5102233;28;20052;-64
2023/10/31 07:19:24;;;;;;;1.77;0.70;;;;;;;20.74;61.94;99728.94;5108257;28;20085;-65
2023/10/31 07:21:51;;;;;;;3.45;0.80;;;;;;;20.73;62.10;99728.09;5108194;28;20047;-66
2023/10/31 07:24:19;;;;;;;2.20;0.70;;;;;;;20.74;61.86;99745.94;5103417;28;20047;-63
2023/10/31 07:26:46;;;;;;;3.05;0.90;;;;;;;20.72;60.76;99755.16;5099009;28;20083;-63
2023/10/31 07:29:13;;;;;;;2.88;0.75;;;;;;;20.70;59.58;99776.88;5101847;28;20044;-64
2023/10/31 07:31:41;;;;;;;2.17;0.47;;;;;;;20.69;59.42;99780.53;5103820;28;20044;-65
2023/10/31 07:34:10;;;;;;;2.42;0.75;;;;;;;20.67;59.24;99817.53;5110064;28;20059;-66
2023/10/31 07:36:39;;;;;;;3.63;0.65;;;;;;;20.66;59.22;99820.38;5094941;28;20466;-64
2023/10/31 07:39:07;;;;;;;2.58;0.80;;;;;;;20.66;58.14;99836.50;5102955;28;20048;-64
2023/10/31 07:41:34;;;;;;;4.15;1.00;;;;;;;20.66;57.86;99839.19;5110139;28;20047;-64
2023/10/31 07:44:02;;;;;;;5.57;0.95;;;;;;;20.65;57.53;99854.47;5113648;28;20055;-62
2023/10/31 07:46:29;;;;;;;1.95;0.70;;;;;;;20.66;57.33;99860.69;5109308;28;20044;-61
2023/10/31 07:48:57;;;;;;;3.50;0.47;;;;;;;20.65;56.92;99859.03;5111304;28;20044;-61
2023/10/31 07:51:24;;;;;;;2.00;0.70;;;;;;;20.64;56.89;99882.41;5098703;28;20047;-64
2023/10/31 07:53:52;;;;;;;3.17;1.17;;;;;;;20.64;56.82;99900.38;5106671;28;20050;-66
2023/10/31 07:56:25;;;;;;;3.78;0.60;;;;;;;20.63;57.06;99894.16;5107761;28;20047;-66
2023/10/31 07:58:52;;;;;;;2.28;0.40;;;;;;;20.64;56.79;99900.38;5108680;28;20066;-61
2023/10/31 08:01:21;;;;;;;1.77;0.50;;;;;;;20.62;57.34;99922.06;5110688;28;20058;-58
2023/10/31 08:03:48;;;;;;;1.85;0.52;;;;;;;20.60;57.23;99923.22;5109419;28;20489;-57
2023/10/31 08:06:16;;;;;;;1.60;0.47;;;;;;;20.56;57.04;99928.06;5111049;28;20048;-60
2023/10/31 08:08:43;;;;;;;2.03;0.55;;;;;;;20.51;57.11;99922.34;5108927;28;20035;-60
2023/10/31 08:11:11;;;;;;;1.25;0.40;;;;;;;20.46;56.86;99938.94;5111708;28;20040;-60
2023/10/31 08:13:38;;;;;;;1.00;0.30;;;;;;;20.41;56.68;99940.41;5112689;28;20481;-61
2023/10/31 08:16:07;;;;;;;1.67;0.63;;;;;;;20.38;56.62;99948.81;5112377;28;20044;-60
2023/10/31 08:18:35;;;;;;;1.50;0.30;;;;;;;20.34;56.69;99944.75;5112949;28;20039;-60
2023/10/31 08:21:03;;;;;;;1.23;0.57;;;;;;;20.31;56.60;99948.59;5108851;28;20056;-61
2023/10/31 08:23:31;;;;;;;1.58;0.50;;;;;;;20.28;56.32;99948.91;5105210;28;20051;-60
2023/10/31 08:25:59;;;;;;;1.17;0.38;;;;;;;20.27;56.36;99959.84;5105366;28;20039;-60
2023/10/31 08:28:26;;;;;;;1.00;0.32;;;;;;;20.23;56.25;99960.13;5097710;28;20044;-60
2023/10/31 08:30:53;;;;;;;1.50;0.40;;;;;;;20.22;56.31;99947.72;5097554;28;20040;-59
2023/10/31 08:33:21;;;;;;;1.05;0.40;;;;;;;20.22;56.03;99950.41;5101919;28;20538;-59
2023/10/31 08:35:49;;;;;;;0.57;0.30;;;;;;;20.21;56.00;99951.38;5097949;28;20044;-60
2023/10/31 08:38:16;;;;;;;1.30;0.40;;;;;;;20.23;55.83;99959.31;5098192;28;20039;-61
2023/10/31 08:40:56;;;;;;;1.02;0.40;;;;;;;20.25;55.84;99950.09;5111783;28;20047;-61
2023/10/31 08:43:23;;;;;;;2.45;0.30;;;;;;;20.28;55.83;99954.28;5109717;28;20048;-63
2023/10/31 08:45:50;;;;;;;1.23;0.35;;;;;;;20.32;55.59;99949.44;5103722;28;20412;-62
2023/10/31 08:48:18;;;;;;;0.63;0.30;;;;;;;20.35;55.56;99944.59;5107092;28;20394;-62
2023/10/31 08:50:45;;;;;;;1.27;0.50;;;;;;;20.39;55.66;99940.56;5104855;28;20048;-63
2023/10/31 08:53:13;;;;;;;0.95;0.30;;;;;;;20.43;55.54;99933.03;5107788;28;20070;-62
2023/10/31 08:55:43;;;;;;;1.10;0.32;;;;;;;20.46;55.62;99935.41;5108614;28;20048;-62
2023/10/31 08:58:18;;;;;;;1.52;0.30;;;;;;;20.50;55.58;99931.44;5105531;28;20508;-61
2023/10/31 09:00:45;;;;;;;2.35;0.55;;;;;;;20.53;55.55;99925.72;5107163;28;20032;-61
2023/10/31 09:03:12;;;;;;;0.65;0.20;;;;;;;20.57;55.37;99939.66;5109364;28;20462;-63
2023/10/31 09:05:40;;;;;;;1.25;0.30;;;;;;;20.57;55.11;99932.44;5109170;28;20432;-59
2023/10/31 09:08:08;;;;;;;0.52;0.20;;;;;;;20.59;54.98;99937.69;5106114;28;20044;-59
2023/10/31 09:10:39;;;;;;;1.63;0.55;;;;;;;20.61;55.06;99947.25;5109024;28;20036;-60
2023/10/31 09:13:08;;;;;;;0.55;0.20;;;;;;;20.62;55.02;99950.78;5110489;28;20044;-65
2023/10/31 09:15:35;;;;;;;1.92;0.30;;;;;;;20.64;54.91;99946.94;5109600;28;20047;-65
2023/10/31 09:18:03;;;;;;;0.65;0.20;;;;;;;20.65;55.22;99954.00;5108287;28;20528;-66
2023/10/31 09:20:30;;;;;;;0.98;0.20;;;;;;;20.66;55.16;99955.69;5111589;28;20512;-66
2023/10/31 09:22:58;;;;;;;2.03;0.45;;;;;;;20.68;55.27;99966.28;5110777;28;20055;-66
2023/10/31 09:25:26;;;;;;;1.55;0.40;;;;;;;20.68;55.39;99952.84;5112384;28;20048;-66
2023/10/31 09:27:53;;;;;;;1.00;0.40;;;;;;;20.70;55.36;99950.81;5110628;28;20047;-65
2023/10/31 09:30:20;;;;;;;2.28;0.70;;;;;;;20.71;55.70;99950.66;5112307;28;20046;-66
2023/10/31 09:32:48;;;;;;;2.78;0.43;;;;;;;20.72;55.66;99952.34;5111389;28;20035;-66
2023/10/31 09:35:16;;;;;;;0.98;0.30;;;;;;;20.74;55.86;99962.94;5113935;28;20043;-65
2023/10/31 09:37:43;;;;;;;0.82;0.30;;;;;;;20.74;55.89;99966.50;5099766;28;20044;-66
2023/10/31 09:40:11;;;;;;;1.17;0.40;;;;;;;20.76;55.96;99971.69;5098873;28;20040;-66
2023/10/31 09:42:38;;;;;;;2.45;0.40;;;;;;;20.75;56.06;99961.94;5110370;28;20032;-66
2023/10/31 09:45:06;;;;;;;1.45;0.32;;;;;;;20.77;56.17;99976.06;5110807;28;20043;-66
2023/10/31 09:47:34;;;;;;;1.63;0.32;;;;;;;20.78;56.13;99971.53;5111277;28;20397;-66
2023/10/31 09:50:02;;;;;;;1.23;0.40;;;;;;;20.78;56.25;99988.50;5107705;28;20047;-66
2023/10/31 09:52:29;;;;;;;0.70;0.20;;;;;;;20.80;56.17;99993.75;5111839;28;20409;-62
2023/10/31 09:54:58;;;;;;;1.48;0.40;;;;;;;20.81;56.27;99976.59;5112283;28;20048;-66
2023/10/31 09:57:26;;;;;;;2.90;0.60;;;;;;;20.81;56.30;99990.88;5112626;28;20053;-65
2023/10/31 09:59:53;;;;;;;1.55;0.30;;;;;;;20.82;56.27;99999.78;5110953;28;20473;-66
2023/10/31 10:02:22;;;;;;;0.80;0.25;;;;;;;20.83;56.22;99993.44;5112339;28;20043;-66
2023/10/31 10:04:50;;;;;;;2.15;0.25;;;;;;;20.83;56.17;99991.56;5111569;28;20051;-66
2023/10/31 10:07:19;;;;;;;1.88;0.30;;;;;;;20.84;56.19;99995.94;5112169;28;20047;-66
2023/10/31 10:09:47;;;;;;;1.55;0.40;;;;;;;20.83;56.12;99993.44;5108363;28;20051;-66
2023/10/31 10:12:16;;;;;;;1.20;0.30;;;;;;;20.82;56.11;99986.34;5111004;28;20040;-66
2023/10/31 10:14:46;;;;;;;1.45;0.32;;;;;;;20.81;55.75;99998.09;5110964;28;20047;-66
2023/10/31 10:17:21;;;;;;;1.55;0.38;;;;;;;20.82;55.82;99997.94;5110166;28;20059;-66
2023/10/31 10:20:10;;;;;;;1.92;0.57;;;;;;;20.82;55.73;99997.09;5112319;28;20051;-66
2023/10/31 10:22:42;;;;;;;1.52;0.40;;;;;;;20.81;55.83;99993.56;5111390;28;20107;-66
2023/10/31 10:25:20;;;;;;;1.05;0.35;;;;;;;20.82;56.14;100007.84;5109197;28;20047;-65
2023/10/31 10:27:48;;;;;;;1.45;0.57;;;;;;;20.82;56.15;100015.94;5108560;28;20048;-66
2023/10/31 10:30:16;;;;;;;0.77;0.17;;;;;;;20.81;55.79;100007.03;5110517;28;20047;-65
2023/10/31 10:32:44;;;;;;;1.10;0.30;;;;;;;20.80;54.71;100008.03;5109952;28;20036;-65
2023/10/31 10:35:11;;;;;;;0.32;0.10;;;;;;;20.78;54.61;100017.25;5107247;28;20043;-66
2023/10/31 10:37:39;;;;;;;0.65;0.20;;;;;;;20.79;54.66;100013.59;5106452;28;20043;-66
2023/10/31 10:40:10;;;;;;;1.85;0.65;;;;;;;20.79;55.02;100009.03;5100490;28;20052;-64
2023/10/31 10:42:47;;;;;;;0.90;0.30;;;;;;;20.80;55.36;100015.25;5104844;28;20051;-67
2023/10/31 10:45:16;;;;;;;1.55;0.50;;;;;;;20.80;55.54;100016.09;5096671;28;20059;-67
2023/10/31 10:47:49;;;;;;;1.65;0.45;;;;;;;20.81;55.76;100019.63;5095211;28;20478;-67
2023/10/31 10:50:21;;;;;;;1.33;0.47;;;;;;;20.82;55.74;100022.16;5099933;28;20051;-68
2023/10/31 10:53:08;;;;;;;1.33;0.43;;;;;;;20.80;54.87;100023.34;5098370;28;20047;-68
2023/10/31 10:55:47;;;;;;;1.98;0.40;;;;;;;20.80;53.99;100009.88;5104786;28;20042;-66
2023/10/31 10:58:29;;;;;;;1.02;0.30;;;;;;;20.78;53.46;100009.19;5102282;28;20047;-66
2023/10/31 11:00:58;;;;;;;0.77;0.15;;;;;;;20.77;53.71;100021.78;5103144;28;20063;-66
2023/10/31 11:03:27;;;;;;;0.65;0.15;;;;;;;20.77;53.49;100020.97;5106655;28;20047;-66
2023/10/31 11:05:55;;;;;;;1.38;0.50;;;;;;;20.76;53.72;100012.03;5109235;28;20073;-67
2023/10/31 11:08:24;;;;;;;1.55;0.35;;;;;;;20.76;53.61;100013.91;5102468;28;20047;-67
2023/10/31 11:10:53;;;;;;;2.20;0.75;;;;;;;20.76;53.34;100009.34;5105922;28;20040;-67
2023/10/31 11:13:22;;;;;;;2.10;0.55;;;;;;;20.74;53.33;100011.34;5108002;28;20035;-67
2023/10/31 11:15:57;;;;;;;1.38;0.30;;;;;;;20.75;53.29;100029.19;5106969;28;20048;-66
2023/10/31 11:18:25;;;;;;;1.08;0.25;;;;;;;20.76;53.27;100013.91;5106164;28;20047;-66
2023/10/31 11:20:53;;;;;;;1.42;0.20;;;;;;;20.74;53.42;100006.84;5107470;28;20409;-66
2023/10/31 11:23:21;;;;;;;1.15;0.32;;;;;;;20.75;53.69;100002.28;5107729;28;20042;-66
2023/10/31 11:25:53;;;;;;;0.65;0.15;;;;;;;20.76;53.56;100016.59;5109241;28;20048;-68
2023/10/31 11:28:21;;;;;;;1.00;0.38;;;;;;;20.75;53.58;100007.69;5104852;28;20058;-68
2023/10/31 11:30:50;;;;;;;1.23;0.20;;;;;;;20.74;53.74;100004.16;5109106;28;20528;-68
2023/10/31 11:33:21;;;;;;;1.17;0.32;;;;;;;20.76;53.90;100003.13;5109977;28;20054;-66
2023/10/31 11:36:00;;;;;;;0.65;0.20;;;;;;;20.74;53.78;100001.47;5109152;28;20044;-66